createdAt,value
2022-10-22T00:02:20.775Z,26.17
2022-10-22T00:06:20.906Z,26.80
2022-10-22T00:10:21.074Z,28.67
2022-10-22T00:14:23.820Z,27.30
2022-10-22T00:18:23.902Z,25.30
2022-10-22T00:22:24.052Z,27.20
2022-10-22T00:26:24.669Z,24.57
2022-10-22T00:30:27.474Z,28.13
2022-10-22T00:34:30.032Z,25.97
2022-10-22T00:38:30.171Z,24.50
2022-10-22T00:42:32.188Z,29.90
2022-10-22T00:46:35.095Z,26.27
2022-10-22T00:50:38.876Z,25.53
2022-10-22T00:54:40.354Z,23.87
2022-10-22T00:58:48.011Z,22.23
2022-10-22T01:02:53.497Z,22.90
2022-10-22T01:06:54.314Z,32.83
2022-10-22T01:11:10.699Z,33.87
2022-10-22T01:15:25.333Z,29.00
2022-10-22T01:19:48.697Z,30.30
2022-10-22T01:24:21.286Z,21.10
2022-10-22T01:28:30.665Z,19.67
2022-10-22T01:32:40.569Z,28.53
2022-10-22T01:36:42.785Z,25.60
2022-10-22T01:40:45.555Z,23.83
2022-10-22T01:44:46.622Z,24.70
2022-10-22T01:49:13.669Z,25.33
2022-10-22T01:53:26.157Z,23.23
2022-10-22T01:57:39.760Z,26.40
2022-10-22T02:01:51.725Z,24.53
2022-10-22T02:06:02.366Z,21.03
2022-10-22T02:10:04.039Z,22.37
2022-10-22T02:14:09.762Z,25.30
2022-10-22T02:18:12.941Z,26.20
2022-10-22T02:22:16.417Z,27.17
2022-10-22T02:26:31.119Z,27.90
2022-10-22T02:30:31.500Z,27.67
2022-10-22T02:34:34.813Z,22.37
2022-10-22T02:38:39.817Z,20.07
2022-10-22T02:42:43.235Z,18.13
2022-10-22T02:46:46.101Z,22.53
2022-10-22T02:50:46.553Z,22.90
2022-10-22T02:54:49.256Z,21.23
2022-10-22T02:58:49.409Z,23.27
2022-10-22T03:02:49.525Z,17.57
2022-10-22T03:06:49.697Z,23.03
2022-10-22T03:10:52.422Z,27.27
2022-10-22T03:14:52.568Z,23.10
2022-10-22T03:18:52.675Z,23.23
2022-10-22T03:22:53.007Z,26.90
2022-10-22T03:26:56.068Z,31.80
2022-10-22T03:30:56.300Z,28.40
2022-10-22T03:34:56.444Z,22.13
2022-10-22T03:38:57.075Z,21.33
2022-10-22T03:43:01.343Z,27.53
2022-10-22T03:47:02.747Z,28.90
2022-10-22T03:51:03.101Z,35.53
2022-10-22T03:55:03.180Z,36.23
2022-10-22T03:59:06.547Z,30.40
2022-10-22T04:03:07.458Z,29.83
2022-10-22T04:07:08.264Z,26.43
2022-10-22T04:11:08.584Z,23.97
2022-10-22T04:15:12.809Z,21.87
2022-10-22T04:19:14.500Z,23.37
2022-10-22T04:23:15.085Z,30.07
2022-10-22T04:27:15.142Z,26.70
2022-10-22T04:31:21.185Z,25.30
2022-10-22T04:35:21.518Z,27.10
2022-10-22T04:39:21.613Z,27.13
2022-10-22T04:43:21.724Z,21.63
2022-10-22T04:47:24.478Z,14.47
2022-10-22T04:51:27.207Z,17.90
2022-10-22T04:55:27.319Z,23.80
2022-10-22T04:59:27.448Z,17.43
2022-10-22T05:03:31.018Z,18.70
2022-10-22T05:07:31.176Z,24.90
2022-10-22T05:11:36.614Z,25.20
2022-10-22T05:15:36.928Z,27.50
2022-10-22T05:19:40.241Z,19.40
2022-10-22T05:23:40.691Z,21.33
2022-10-22T05:27:41.064Z,17.47
2022-10-22T05:31:41.656Z,16.70
2022-10-22T05:35:46.762Z,17.03
2022-10-22T05:39:47.125Z,19.17
2022-10-22T05:43:47.744Z,14.17
2022-10-22T05:47:47.870Z,11.57
2022-10-22T05:51:50.624Z,14.47
2022-10-22T05:55:50.745Z,12.00
2022-10-22T05:59:50.861Z,13.97
2022-10-22T06:03:52.127Z,17.17
2022-10-22T06:07:55.063Z,13.43
2022-10-22T06:11:55.739Z,15.47
2022-10-22T06:15:56.252Z,11.60
2022-10-22T06:19:56.474Z,9.90
2022-10-22T06:24:00.212Z,8.40
2022-10-22T06:28:00.407Z,7.77
2022-10-22T06:32:00.556Z,7.97
2022-10-22T06:36:08.853Z,7.20
2022-10-22T06:40:13.778Z,10.73
2022-10-22T06:44:19.215Z,15.43
2022-10-22T06:48:19.362Z,28.50
2022-10-22T06:52:20.315Z,27.37
2022-10-22T06:56:25.815Z,29.23
2022-10-22T07:00:26.441Z,27.40
2022-10-22T07:04:26.651Z,31.03
2022-10-22T07:08:26.912Z,29.40
2022-10-22T07:12:29.943Z,27.97
2022-10-22T07:16:32.471Z,31.47
2022-10-22T07:20:32.953Z,37.87
2022-10-22T07:24:33.280Z,36.80
2022-10-22T07:28:38.029Z,32.67
2022-10-22T07:32:38.237Z,26.07
2022-10-22T07:36:38.461Z,25.08
2022-10-22T07:40:39.747Z,22.33
2022-10-22T07:44:42.621Z,20.30
2022-10-22T07:48:42.777Z,14.75
2022-10-22T07:52:43.544Z,10.00
2022-10-22T07:56:43.959Z,7.40
2022-10-22T08:00:47.286Z,7.22
2022-10-22T08:04:47.755Z,5.55
2022-10-22T08:08:48.601Z,5.53
2022-10-22T08:12:48.799Z,9.43
2022-10-22T08:16:51.770Z,8.05
2022-10-22T08:20:51.868Z,5.95
2022-10-22T08:24:52.101Z,6.35
2022-10-22T08:28:52.251Z,6.22
2022-10-22T08:32:55.110Z,4.85
2022-10-22T08:36:55.257Z,3.50
2022-10-22T08:40:59.704Z,3.83
2022-10-22T08:45:15.241Z,2.08
2022-10-22T08:49:25.542Z,5.45
2022-10-22T08:53:37.186Z,2.17
2022-10-22T08:57:54.819Z,4.20
2022-10-22T09:01:57.313Z,2.17
2022-10-22T09:06:11.073Z,1.85
2022-10-22T09:10:15.385Z,1.20
2022-10-22T09:14:20.048Z,1.77
2022-10-22T09:18:37.994Z,3.42
2022-10-22T09:22:50.986Z,2.92
2022-10-22T09:26:51.241Z,2.05
2022-10-22T09:30:51.993Z,2.80
2022-10-22T09:34:59.000Z,2.40
2022-10-22T09:39:02.447Z,6.15
2022-10-22T09:43:03.088Z,4.40
2022-10-22T09:47:03.483Z,6.00
2022-10-22T09:51:21.488Z,4.03
2022-10-22T09:55:27.051Z,1.13
2022-10-22T09:59:36.099Z,1.67
2022-10-22T10:03:37.613Z,1.83
2022-10-22T10:07:39.697Z,3.72
2022-10-22T10:11:51.677Z,2.47
2022-10-22T10:16:03.632Z,2.40
2022-10-22T10:20:20.930Z,3.10
2022-10-22T10:24:34.592Z,1.98
2022-10-22T10:29:05.093Z,1.42
2022-10-22T10:33:19.503Z,5.35
2022-10-22T10:37:26.292Z,3.15
2022-10-22T10:41:41.526Z,2.38
2022-10-22T10:46:00.251Z,2.17
2022-10-22T10:50:19.581Z,2.40
2022-10-22T10:59:15.279Z,2.33
2022-10-22T11:04:14.610Z,1.38
2022-10-22T11:08:21.752Z,3.50
2022-10-22T11:12:29.518Z,2.08
2022-10-22T11:16:38.055Z,3.80
2022-10-22T11:20:54.949Z,2.88
2022-10-22T11:25:03.239Z,5.03
2022-10-22T11:29:06.331Z,4.70
2022-10-22T11:33:14.088Z,3.40
2022-10-22T11:37:18.354Z,3.60
2022-10-22T11:41:24.768Z,4.45
2022-10-22T11:45:34.767Z,3.38
2022-10-22T11:49:46.662Z,6.07
2022-10-22T11:53:57.983Z,3.10
2022-10-22T11:58:02.449Z,3.72
2022-10-22T12:02:03.140Z,6.38
2022-10-22T12:06:21.853Z,1.63
2022-10-22T12:10:31.268Z,5.05
2022-10-22T12:14:37.293Z,4.30
2022-10-22T12:18:45.717Z,2.67
2022-10-22T12:22:46.763Z,3.83
2022-10-22T12:26:49.954Z,3.28
2022-10-22T12:30:50.599Z,3.72
2022-10-22T12:34:53.811Z,2.45
2022-10-22T12:38:54.416Z,3.50
2022-10-22T12:43:00.571Z,2.53
2022-10-22T12:47:01.535Z,3.40
2022-10-22T12:51:07.239Z,3.85
2022-10-22T12:55:10.767Z,1.92
2022-10-22T12:59:24.564Z,1.92
2022-10-22T13:03:33.284Z,3.17
2022-10-22T13:07:44.072Z,3.67
2022-10-22T13:11:52.774Z,3.33
2022-10-22T13:15:56.931Z,2.15
2022-10-22T13:20:05.527Z,2.25
2022-10-22T13:24:22.876Z,2.75
2022-10-22T13:28:25.428Z,5.18
2022-10-22T13:32:35.692Z,3.38
2022-10-22T13:36:36.456Z,5.05
2022-10-22T13:40:36.849Z,3.28
2022-10-22T13:44:37.138Z,2.08
2022-10-22T13:48:40.103Z,3.72
2022-10-22T13:52:44.973Z,1.45
2022-10-22T13:56:45.083Z,2.85
2022-10-22T14:00:48.607Z,2.13
2022-10-22T14:04:52.272Z,3.17
2022-10-22T14:08:59.415Z,2.88
2022-10-22T14:12:59.519Z,2.65
2022-10-22T14:16:59.710Z,2.45
2022-10-22T14:21:07.531Z,4.10
2022-10-22T14:25:09.068Z,2.28
2022-10-22T14:29:10.598Z,4.25
2022-10-22T14:33:17.703Z,3.00
2022-10-22T14:37:24.977Z,5.63
2022-10-22T14:41:27.772Z,5.78
2022-10-22T14:45:30.125Z,1.55
2022-10-22T14:49:30.323Z,4.50
2022-10-22T14:53:33.047Z,3.47
2022-10-22T14:57:34.450Z,2.65
2022-10-22T15:01:34.708Z,2.95
2022-10-22T15:05:36.309Z,2.88
2022-10-22T15:09:39.073Z,4.53
2022-10-22T15:13:39.463Z,3.42
2022-10-22T15:17:39.859Z,4.05
2022-10-22T15:25:46.741Z,2.00
2022-10-22T15:29:46.858Z,3.97
2022-10-22T15:33:47.131Z,5.35
2022-10-22T15:37:47.392Z,3.97
2022-10-22T15:41:51.384Z,4.88
2022-10-22T15:46:12.865Z,4.68
2022-10-22T15:50:13.007Z,5.18
2022-10-22T15:54:18.188Z,5.05
2022-10-22T15:58:21.031Z,5.20
2022-10-22T16:02:21.324Z,6.03
2022-10-22T16:06:21.553Z,73.10
2022-10-22T16:10:21.904Z,6.53
2022-10-22T16:14:26.383Z,6.70
2022-10-22T16:18:26.732Z,8.10
2022-10-22T16:22:27.400Z,6.05
2022-10-22T16:26:27.595Z,5.68
2022-10-22T16:30:30.405Z,6.35
2022-10-22T16:34:30.891Z,6.35
2022-10-22T16:38:31.524Z,5.93
2022-10-22T16:42:32.205Z,7.47
2022-10-22T16:46:38.338Z,7.18
2022-10-22T16:50:41.946Z,8.32
2022-10-22T16:54:42.157Z,12.52
2022-10-22T16:58:47.157Z,10.45
2022-10-22T17:02:55.722Z,11.38
2022-10-22T17:06:56.086Z,5.85
2022-10-22T17:10:56.397Z,8.88
2022-10-22T17:14:56.626Z,12.55
2022-10-22T17:19:00.382Z,14.85
2022-10-22T17:23:00.617Z,12.23
2022-10-22T17:27:00.797Z,10.10
2022-10-22T17:31:10.124Z,8.18
2022-10-22T17:35:13.921Z,9.88
2022-10-22T17:39:20.365Z,9.38
2022-10-22T17:43:20.853Z,16.50
2022-10-22T17:47:22.187Z,9.50
2022-10-22T17:51:27.736Z,8.23
2022-10-22T17:55:29.314Z,8.53
2022-10-22T17:59:29.547Z,18.43
2022-10-22T18:03:29.923Z,20.13
2022-10-22T18:07:32.660Z,24.33
2022-10-22T18:11:34.469Z,11.97
2022-10-22T18:15:36.454Z,7.90
2022-10-22T18:19:36.552Z,5.10
2022-10-22T18:23:39.506Z,10.60
2022-10-22T18:27:40.354Z,11.33
2022-10-22T18:31:40.694Z,15.67
2022-10-22T18:35:41.597Z,15.70
2022-10-22T18:39:44.506Z,17.50
2022-10-22T18:43:44.697Z,17.57
2022-10-22T18:47:45.101Z,20.73
2022-10-22T18:51:45.280Z,17.60
2022-10-22T18:55:48.120Z,16.93
2022-10-22T18:59:48.267Z,14.63
2022-10-22T19:03:48.973Z,16.47
2022-10-22T19:07:49.104Z,17.23
2022-10-22T19:11:51.813Z,18.93
2022-10-22T19:15:52.417Z,23.23
2022-10-22T19:19:52.530Z,21.63
2022-10-22T19:23:52.689Z,28.37
2022-10-22T19:27:55.536Z,20.23
2022-10-22T19:31:55.951Z,20.60
2022-10-22T19:35:56.439Z,20.47
2022-10-22T19:39:56.657Z,21.23
2022-10-22T19:44:01.259Z,31.60
2022-10-22T19:48:01.469Z,25.67
2022-10-22T19:52:01.646Z,27.37
2022-10-22T19:56:02.628Z,21.30
2022-10-22T20:00:05.681Z,21.67
2022-10-22T20:04:10.220Z,18.00
2022-10-22T20:08:10.555Z,18.03
2022-10-22T20:12:11.150Z,21.43
2022-10-22T20:16:14.746Z,17.27
2022-10-22T20:20:14.905Z,19.27
2022-10-22T20:24:17.963Z,16.50
2022-10-22T20:28:18.752Z,16.53
2022-10-22T20:32:22.138Z,18.17
2022-10-22T20:36:25.407Z,25.40
2022-10-22T20:40:28.040Z,23.07
2022-10-22T20:44:28.213Z,24.43
2022-10-22T20:48:32.121Z,13.37
2022-10-22T20:52:32.458Z,17.17
2022-10-22T20:56:32.929Z,16.17
2022-10-22T21:00:35.999Z,18.87
2022-10-22T21:04:40.519Z,17.67
2022-10-22T21:08:43.308Z,18.57
2022-10-22T21:12:44.197Z,16.00
2022-10-22T21:16:47.148Z,13.47
2022-10-22T21:20:49.849Z,11.13
2022-10-22T21:24:50.008Z,20.03
2022-10-22T21:28:50.878Z,22.67
2022-10-22T21:32:51.846Z,18.93
2022-10-22T21:36:54.626Z,17.00
2022-10-22T21:40:55.121Z,15.30
2022-10-22T21:44:55.415Z,17.97
2022-10-22T21:49:01.928Z,16.37
2022-10-22T21:53:04.806Z,18.83
2022-10-22T21:57:05.167Z,19.83
2022-10-22T22:01:05.813Z,19.90
2022-10-22T22:05:06.104Z,16.87
2022-10-22T22:09:09.466Z,17.50
2022-10-22T22:13:09.716Z,18.93
2022-10-22T22:17:10.715Z,16.60
2022-10-22T22:21:14.512Z,16.50
2022-10-22T22:25:17.562Z,17.47
2022-10-22T22:29:17.723Z,13.87
2022-10-22T22:33:17.895Z,18.27
2022-10-22T22:37:18.043Z,16.60
2022-10-22T22:41:20.875Z,15.73
2022-10-22T22:45:21.239Z,18.43
2022-10-22T22:49:21.384Z,21.30
2022-10-22T22:53:21.561Z,22.93
2022-10-22T22:57:24.367Z,51.70
2022-10-22T23:01:27.799Z,23.03
2022-10-22T23:05:28.041Z,22.97
2022-10-22T23:09:28.358Z,16.83
2022-10-22T23:13:31.278Z,25.33
2022-10-22T23:17:31.635Z,12.70
2022-10-22T23:21:34.857Z,11.80
2022-10-22T23:25:35.275Z,15.87
2022-10-22T23:29:38.813Z,10.07
2022-10-22T23:33:38.934Z,10.77
2022-10-22T23:37:39.260Z,11.00
2022-10-22T23:41:40.376Z,9.93
2022-10-22T23:45:43.086Z,9.20
2022-10-22T23:49:43.270Z,15.00
2022-10-22T23:53:45.481Z,13.57
2022-10-22T23:57:45.604Z,14.23
